www.cux-wetter.de
Wetterdaten: Samstag, 14.12.2013
Datum Zeit Temp. A. Feuchte A. Luftdruck Regen Wind Richtung Richtung Sonnenschein Solar Taupunkt Windchill Windben
14.12.2013 00:00 3,3 C 80 % 1019,5 hPa 0,0 l/m 10,7 km/h (2 Bft) SW 215 0 min 0 W/m 0,2 C -0,3 C 10,7 km/h (2 Bft)
14.12.2013 00:15 3,3 C 80 % 1019,5 hPa 0,0 l/m 13,7 km/h (3 Bft) SW 215 0 min 0 W/m 0,2 C -2,3 C 13,7 km/h (3 Bft)
14.12.2013 00:30 3,3 C 80 % 1019,5 hPa 0,0 l/m 14,5 km/h (3 Bft) SW 220 0 min 0 W/m 0,2 C -2,7 C 14,5 km/h (3 Bft)
14.12.2013 00:45 3,3 C 80 % 1019,5 hPa 0,0 l/m 15,1 km/h (3 Bft) SW 220 0 min 0 W/m 0,2 C -3,0 C 15,1 km/h (3 Bft)
14.12.2013 01:00 3,3 C 80 % 1019,5 hPa 0,0 l/m 16,1 km/h (3 Bft) SW 225 0 min 0 W/m 0,2 C -3,6 C 16,1 km/h (3 Bft)
14.12.2013 01:15 3,2 C 80 % 1018,5 hPa 0,0 l/m 14,6 km/h (3 Bft) SW 215 0 min 0 W/m 0,1 C -2,9 C 14,6 km/h (3 Bft)
14.12.2013 01:30 3,2 C 80 % 1018,5 hPa 0,0 l/m 16,5 km/h (3 Bft) SW 215 0 min 0 W/m 0,1 C -3,9 C 16,5 km/h (3 Bft)
14.12.2013 01:45 3,1 C 80 % 1019,5 hPa 0,0 l/m 14,9 km/h (3 Bft) SW 230 0 min 0 W/m -0,0 C -3,2 C 14,9 km/h (3 Bft)
14.12.2013 02:00 3,1 C 80 % 1018,5 hPa 0,0 l/m 14,8 km/h (3 Bft) SW 215 0 min 0 W/m -0,0 C -3,1 C 14,8 km/h (3 Bft)
14.12.2013 02:15 3,1 C 80 % 1018,5 hPa 0,0 l/m 15,1 km/h (3 Bft) SW 230 0 min 0 W/m -0,0 C -3,3 C 15,1 km/h (3 Bft)
14.12.2013 02:30 2,9 C 80 % 1018,5 hPa 0,0 l/m 14,9 km/h (3 Bft) SW 215 0 min 0 W/m -0,2 C -3,4 C 14,9 km/h (3 Bft)
14.12.2013 02:45 2,9 C 80 % 1018,5 hPa 0,0 l/m 14,5 km/h (3 Bft) S-SW 200 0 min 0 W/m -0,2 C -3,2 C 14,5 km/h (3 Bft)
14.12.2013 02:59 2,7 C 80 % 1018,5 hPa 0,0 l/m 18,3 km/h (3 Bft) S-SW 210 0 min 0 W/m -0,4 C -5,4 C 18,3 km/h (3 Bft)
14.12.2013 03:15 2,7 C 80 % 1018,5 hPa 0,0 l/m 15,9 km/h (3 Bft) W-SW 240 0 min 0 W/m -0,4 C -4,2 C 15,9 km/h (3 Bft)
14.12.2013 03:30 2,6 C 80 % 1018,5 hPa 0,0 l/m 17,6 km/h (3 Bft) SW 230 0 min 0 W/m -0,5 C -5,2 C 17,6 km/h (3 Bft)
14.12.2013 03:44 2,6 C 80 % 1018,5 hPa 0,0 l/m 20,9 km/h (4 Bft) W-SW 240 0 min 0 W/m -0,5 C -6,7 C 20,9 km/h (4 Bft)
14.12.2013 04:00 2,5 C 80 % 1018,5 hPa 0,0 l/m 15,3 km/h (3 Bft) SW 235 0 min 0 W/m -0,6 C -4,1 C 15,3 km/h (3 Bft)
14.12.2013 04:15 2,5 C 80 % 1018,5 hPa 0,0 l/m 16,5 km/h (3 Bft) SW 215 0 min 0 W/m -0,6 C -4,8 C 16,5 km/h (3 Bft)
14.12.2013 04:29 2,4 C 80 % 1018,5 hPa 0,0 l/m 14,3 km/h (3 Bft) SW 215 0 min 0 W/m -0,7 C -3,7 C 14,3 km/h (3 Bft)
14.12.2013 04:45 2,4 C 80 % 1018,5 hPa 0,0 l/m 15,8 km/h (3 Bft) SW 220 0 min 0 W/m -0,7 C -4,5 C 15,8 km/h (3 Bft)
14.12.2013 05:00 2,3 C 80 % 1018,5 hPa 0,0 l/m 16,5 km/h (3 Bft) SW 215 0 min 0 W/m -0,8 C -5,0 C 16,5 km/h (3 Bft)
14.12.2013 05:14 2,2 C 80 % 1018,5 hPa 0,0 l/m 13,0 km/h (3 Bft) SW 220 0 min 0 W/m -0,9 C -3,1 C 13,0 km/h (3 Bft)
14.12.2013 05:30 2,2 C 80 % 1018,5 hPa 0,0 l/m 19,1 km/h (3 Bft) SW 225 0 min 0 W/m -0,9 C -6,4 C 19,1 km/h (3 Bft)
14.12.2013 05:45 2,3 C 81 % 1018,5 hPa 0,0 l/m 17,4 km/h (3 Bft) SW 225 0 min 0 W/m -0,6 C -5,5 C 17,4 km/h (3 Bft)
14.12.2013 06:00 2,3 C 81 % 1018,5 hPa 0,0 l/m 16,5 km/h (3 Bft) SW 235 0 min 0 W/m -0,6 C -5,0 C 16,5 km/h (3 Bft)
14.12.2013 06:15 2,3 C 81 % 1018,5 hPa 0,0 l/m 18,0 km/h (3 Bft) SW 220 0 min 0 W/m -0,6 C -5,7 C 18,0 km/h (3 Bft)
14.12.2013 06:30 2,4 C 81 % 1018,5 hPa 0,0 l/m 19,7 km/h (3 Bft) W-SW 245 0 min 0 W/m -0,5 C -6,4 C 19,7 km/h (3 Bft)
14.12.2013 06:45 2,4 C 81 % 1018,5 hPa 0,0 l/m 18,6 km/h (3 Bft) W-SW 240 0 min 0 W/m -0,5 C -5,9 C 18,6 km/h (3 Bft)
14.12.2013 07:00 2,5 C 81 % 1018,5 hPa 0,0 l/m 24,6 km/h (4 Bft) W-SW 255 0 min 0 W/m -0,4 C -8,2 C 24,6 km/h (4 Bft)
14.12.2013 07:15 2,5 C 81 % 1018,5 hPa 0,0 l/m 24,6 km/h (4 Bft) W-SW 250 0 min 0 W/m -0,4 C -8,2 C 24,6 km/h (4 Bft)
14.12.2013 07:30 2,6 C 81 % 1018,5 hPa 0,0 l/m 26,2 km/h (4 Bft) W-SW 250 0 min 0 W/m -0,3 C -8,6 C 26,2 km/h (4 Bft)
14.12.2013 07:45 2,6 C 81 % 1018,5 hPa 0,0 l/m 19,8 km/h (3 Bft) W-SW 250 0 min 0 W/m -0,3 C -6,2 C 19,8 km/h (3 Bft)
14.12.2013 08:00 2,6 C 81 % 1018,5 hPa 0,0 l/m 26,7 km/h (4 Bft) W-SW 255 0 min 0 W/m -0,3 C -8,8 C 26,7 km/h (4 Bft)
14.12.2013 08:15 2,7 C 81 % 1018,5 hPa 0,0 l/m 22,9 km/h (4 Bft) W-SW 250 0 min 0 W/m -0,2 C -7,3 C 22,9 km/h (4 Bft)
14.12.2013 08:30 2,8 C 82 % 1018,5 hPa 0,0 l/m 21,6 km/h (4 Bft) W-SW 245 0 min 0 W/m 0,0 C -6,7 C 21,6 km/h (4 Bft)
14.12.2013 08:45 3,0 C 82 % 1018,5 hPa 0,0 l/m 24,6 km/h (4 Bft) W 260 0 min 0 W/m 0,2 C -7,5 C 24,6 km/h (4 Bft)
14.12.2013 09:00 3,1 C 82 % 1019,5 hPa 0,0 l/m 20,1 km/h (4 Bft) W-SW 250 0 min 0 W/m 0,3 C -5,7 C 20,1 km/h (4 Bft)
14.12.2013 09:15 3,3 C 82 % 1019,5 hPa 0,0 l/m 19,6 km/h (3 Bft) W-SW 250 0 min 0 W/m 0,5 C -5,2 C 19,6 km/h (3 Bft)
14.12.2013 09:30 3,5 C 82 % 1019,5 hPa 0,0 l/m 21,2 km/h (4 Bft) W-SW 250 0 min 0 W/m 0,7 C -5,6 C 21,2 km/h (4 Bft)
14.12.2013 09:45 3,7 C 82 % 1019,5 hPa 0,0 l/m 19,0 km/h (3 Bft) W-SW 255 0 min 0 W/m 0,9 C -4,4 C 19,0 km/h (3 Bft)
14.12.2013 10:00 3,9 C 82 % 1019,5 hPa 0,0 l/m 19,0 km/h (3 Bft) W-SW 255 0 min 0 W/m 1,1 C -4,2 C 19,0 km/h (3 Bft)
14.12.2013 10:15 3,9 C 82 % 1019,5 hPa 0,0 l/m 19,0 km/h (3 Bft) W-SW 255 0 min 0 W/m 1,1 C -4,2 C 19,0 km/h (3 Bft)
14.12.2013 10:30 4,0 C 82 % 1019,5 hPa 0,0 l/m 19,0 km/h (3 Bft) W-SW 255 0 min 0 W/m 1,2 C -4,0 C 19,0 km/h (3 Bft)
14.12.2013 10:45 4,2 C 82 % 1020,5 hPa 0,0 l/m 19,0 km/h (3 Bft) W-SW 255 0 min 0 W/m 1,4 C -3,8 C 19,0 km/h (3 Bft)
14.12.2013 11:00 4,3 C 82 % 1020,5 hPa 0,0 l/m 19,0 km/h (3 Bft) W-SW 255 0 min 0 W/m 1,5 C -3,7 C 19,0 km/h (3 Bft)
14.12.2013 11:15 4,4 C 82 % 1020,5 hPa 0,0 l/m 20,0 km/h (4 Bft) W-SW 255 0 min 0 W/m 1,6 C -3,9 C 20,0 km/h (4 Bft)
14.12.2013 11:30 4,5 C 82 % 1020,5 hPa 0,0 l/m 15,6 km/h (3 Bft) W-SW 250 0 min 0 W/m 1,7 C -1,8 C 15,6 km/h (3 Bft)
14.12.2013 11:45 4,7 C 82 % 1020,5 hPa 0,0 l/m 22,8 km/h (4 Bft) W-SW 255 0 min 0 W/m 1,9 C -4,6 C 22,8 km/h (4 Bft)
14.12.2013 12:00 4,9 C 82 % 1020,5 hPa 0,0 l/m 22,8 km/h (4 Bft) W-SW 255 0 min 0 W/m 2,1 C -4,3 C 22,8 km/h (4 Bft)
14.12.2013 12:15 5,2 C 83 % 1020,5 hPa 0,0 l/m 21,5 km/h (4 Bft) W 260 0 min 0 W/m 2,6 C -3,5 C 21,5 km/h (4 Bft)
14.12.2013 12:29 5,4 C 83 % 1020,5 hPa 0,0 l/m 22,0 km/h (4 Bft) W 265 0 min 0 W/m 2,7 C -3,4 C 22,0 km/h (4 Bft)
14.12.2013 12:45 5,6 C 83 % 1020,5 hPa 0,0 l/m 21,0 km/h (4 Bft) W 265 0 min 0 W/m 2,9 C -2,8 C 21,0 km/h (4 Bft)
14.12.2013 13:00 5,9 C 83 % 1020,5 hPa 0,0 l/m 22,1 km/h (4 Bft) W 265 0 min 0 W/m 3,2 C -2,8 C 22,1 km/h (4 Bft)
14.12.2013 13:14 5,9 C 82 % 1021,5 hPa 0,0 l/m 21,2 km/h (4 Bft) W 265 0 min 0 W/m 3,1 C -2,5 C 21,2 km/h (4 Bft)
14.12.2013 13:30 6,0 C 82 % 1021,5 hPa 0,0 l/m 21,2 km/h (4 Bft) W 265 0 min 0 W/m 3,2 C -2,3 C 21,2 km/h (4 Bft)
14.12.2013 13:45 6,0 C 82 % 1021,5 hPa 0,0 l/m 23,3 km/h (4 Bft) W 260 0 min 0 W/m 3,2 C -3,0 C 23,3 km/h (4 Bft)
14.12.2013 14:00 6,1 C 82 % 1021,5 hPa 0,0 l/m 25,0 km/h (4 Bft) W 260 0 min 0 W/m 3,3 C -3,5 C 25,0 km/h (4 Bft)
14.12.2013 14:15 6,2 C 82 % 1021,5 hPa 0,0 l/m 25,0 km/h (4 Bft) W 260 0 min 0 W/m 3,4 C -3,3 C 25,0 km/h (4 Bft)
14.12.2013 14:30 6,4 C 82 % 1021,5 hPa 0,0 l/m 25,0 km/h (4 Bft) W 260 0 min 0 W/m 3,6 C -3,0 C 25,0 km/h (4 Bft)
14.12.2013 14:45 6,6 C 82 % 1021,5 hPa 0,0 l/m 16,6 km/h (3 Bft) W 260 0 min 0 W/m 3,8 C 0,3 C 16,6 km/h (3 Bft)
14.12.2013 15:00 6,6 C 82 % 1021,5 hPa 0,0 l/m 19,0 km/h (3 Bft) W 260 0 min 0 W/m 3,8 C -0,7 C 19,0 km/h (3 Bft)
14.12.2013 15:15 6,7 C 82 % 1021,5 hPa 0,0 l/m 19,0 km/h (3 Bft) W 260 0 min 0 W/m 3,8 C -0,6 C 19,0 km/h (3 Bft)
14.12.2013 15:30 6,7 C 82 % 1022,5 hPa 0,0 l/m 22,3 km/h (4 Bft) W 265 0 min 0 W/m 3,8 C -1,8 C 22,3 km/h (4 Bft)
14.12.2013 15:45 6,8 C 82 % 1022,5 hPa 0,0 l/m 22,6 km/h (4 Bft) W-SW 250 0 min 0 W/m 3,9 C -1,8 C 22,6 km/h (4 Bft)
14.12.2013 16:00 6,9 C 82 % 1022,5 hPa 0,0 l/m 22,6 km/h (4 Bft) W-SW 250 0 min 0 W/m 4,0 C -1,6 C 22,6 km/h (4 Bft)
14.12.2013 16:15 6,8 C 82 % 1022,5 hPa 0,0 l/m 24,8 km/h (4 Bft) W 260 0 min 0 W/m 3,9 C -2,4 C 24,8 km/h (4 Bft)
14.12.2013 16:30 6,7 C 82 % 1022,5 hPa 0,0 l/m 24,8 km/h (4 Bft) W 260 0 min 0 W/m 3,8 C -2,6 C 24,8 km/h (4 Bft)
14.12.2013 16:45 6,8 C 82 % 1022,5 hPa 0,0 l/m 23,1 km/h (4 Bft) W 265 0 min 0 W/m 3,9 C -1,9 C 23,1 km/h (4 Bft)
14.12.2013 17:00 6,6 C 82 % 1022,5 hPa 0,0 l/m 27,7 km/h (5 Bft) W 260 0 min 0 W/m 3,8 C -3,5 C 27,7 km/h (5 Bft)
14.12.2013 17:15 6,8 C 82 % 1023,5 hPa 0,0 l/m 24,3 km/h (4 Bft) W 260 0 min 0 W/m 3,9 C -2,3 C 24,3 km/h (4 Bft)
14.12.2013 17:30 6,8 C 82 % 1023,5 hPa 0,0 l/m 27,0 km/h (5 Bft) W-SW 255 0 min 0 W/m 3,9 C -3,1 C 27,0 km/h (5 Bft)
14.12.2013 17:45 6,8 C 82 % 1023,5 hPa 0,0 l/m 29,9 km/h (5 Bft) W-SW 255 0 min 0 W/m 3,9 C -3,8 C 29,9 km/h (5 Bft)
14.12.2013 18:00 6,8 C 82 % 1023,5 hPa 0,0 l/m 29,5 km/h (5 Bft) W 265 0 min 0 W/m 3,9 C -3,7 C 29,5 km/h (5 Bft)
14.12.2013 18:15 6,6 C 82 % 1023,5 hPa 0,0 l/m 17,4 km/h (3 Bft) W 260 0 min 0 W/m 3,8 C -0,1 C 17,4 km/h (3 Bft)
14.12.2013 18:30 6,5 C 82 % 1023,5 hPa 0,0 l/m 20,6 km/h (4 Bft) W 260 0 min 0 W/m 3,7 C -1,5 C 20,6 km/h (4 Bft)
14.12.2013 18:45 6,5 C 82 % 1023,5 hPa 0,0 l/m 19,4 km/h (3 Bft) W-SW 250 0 min 0 W/m 3,7 C -1,0 C 19,4 km/h (3 Bft)
14.12.2013 19:00 6,3 C 82 % 1023,5 hPa 0,0 l/m 19,4 km/h (3 Bft) W-SW 250 0 min 0 W/m 3,5 C -1,3 C 19,4 km/h (3 Bft)
14.12.2013 19:15 6,1 C 82 % 1023,5 hPa 0,0 l/m 23,3 km/h (4 Bft) W-SW 250 0 min 0 W/m 3,3 C -2,9 C 23,3 km/h (4 Bft)
14.12.2013 19:30 6,1 C 82 % 1023,5 hPa 0,0 l/m 24,8 km/h (4 Bft) W-SW 250 0 min 0 W/m 3,3 C -3,4 C 24,8 km/h (4 Bft)
14.12.2013 19:45 6,0 C 82 % 1023,5 hPa 0,0 l/m 19,5 km/h (3 Bft) W-SW 250 0 min 0 W/m 3,2 C -1,7 C 19,5 km/h (3 Bft)
14.12.2013 20:00 5,9 C 81 % 1023,5 hPa 0,0 l/m 22,9 km/h (4 Bft) W-SW 245 0 min 0 W/m 2,9 C -3,0 C 22,9 km/h (4 Bft)
14.12.2013 20:15 6,0 C 82 % 1023,5 hPa 0,0 l/m 22,3 km/h (4 Bft) W-SW 250 0 min 0 W/m 3,2 C -2,7 C 22,3 km/h (4 Bft)
14.12.2013 20:30 6,0 C 82 % 1022,5 hPa 0,0 l/m 21,3 km/h (4 Bft) SW 230 0 min 0 W/m 3,2 C -2,4 C 21,3 km/h (4 Bft)
14.12.2013 20:45 5,9 C 81 % 1022,5 hPa 0,0 l/m 19,8 km/h (3 Bft) W-SW 240 0 min 0 W/m 2,9 C -1,9 C 19,8 km/h (3 Bft)
14.12.2013 20:59 5,8 C 81 % 1022,5 hPa 0,0 l/m 26,7 km/h (4 Bft) W-SW 240 0 min 0 W/m 2,8 C -4,4 C 26,7 km/h (4 Bft)
14.12.2013 21:15 5,6 C 81 % 1022,5 hPa 0,0 l/m 26,7 km/h (4 Bft) W-SW 240 0 min 0 W/m 2,6 C -4,6 C 26,7 km/h (4 Bft)
14.12.2013 21:30 5,6 C 81 % 1022,5 hPa 0,0 l/m 27,0 km/h (5 Bft) SW 235 0 min 0 W/m 2,6 C -4,7 C 27,0 km/h (5 Bft)
14.12.2013 21:44 5,5 C 81 % 1022,5 hPa 0,0 l/m 24,0 km/h (4 Bft) W-SW 255 0 min 0 W/m 2,5 C -3,9 C 24,0 km/h (4 Bft)
14.12.2013 22:00 5,4 C 81 % 1022,5 hPa 0,0 l/m 28,3 km/h (5 Bft) W-SW 245 0 min 0 W/m 2,4 C -5,4 C 28,3 km/h (5 Bft)
14.12.2013 22:15 5,3 C 81 % 1022,5 hPa 0,0 l/m 30,6 km/h (5 Bft) W-SW 245 0 min 0 W/m 2,3 C -6,1 C 30,6 km/h (5 Bft)
14.12.2013 22:29 5,2 C 81 % 1022,5 hPa 0,0 l/m 27,6 km/h (5 Bft) W-SW 255 0 min 0 W/m 2,2 C -5,4 C 27,6 km/h (5 Bft)
14.12.2013 22:45 5,2 C 81 % 1022,5 hPa 0,0 l/m 27,6 km/h (5 Bft) W-SW 255 0 min 0 W/m 2,2 C -5,4 C 27,6 km/h (5 Bft)
14.12.2013 23:00 5,3 C 81 % 1021,5 hPa 0,0 l/m 28,5 km/h (5 Bft) W-SW 255 0 min 0 W/m 2,3 C -5,6 C 28,5 km/h (5 Bft)
14.12.2013 23:14 5,5 C 81 % 1021,5 hPa 0,0 l/m 27,3 km/h (5 Bft) W-SW 240 0 min 0 W/m 2,5 C -4,9 C 27,3 km/h (5 Bft)
14.12.2013 23:30 5,6 C 81 % 1021,5 hPa 0,0 l/m 30,8 km/h (5 Bft) SW 230 0 min 0 W/m 2,6 C -5,7 C 30,8 km/h (5 Bft)
14.12.2013 23:45 5,8 C 81 % 1020,5 hPa 0,0 l/m 28,1 km/h (5 Bft) SW 230 0 min 0 W/m 2,8 C -4,8 C 28,1 km/h (5 Bft)
_ Min-Zeit 05:14 00:00 01:15 - 00:00 - - - - 05:14 08:00 00:00
Minimum _ 2,2 C 80 % 1018,5 hPa - 10,7 km/h (2 Bft) - - - - -0,9 C -8,8 C 10,7 km/h (2 Bft)
_ Max-Zeit 16:00 12:15 17:15 00:00 23:30 - - 00:00 00:00 16:00 14:45 23:30
Maximum _ 6,9 C 83 % 1023,5 hPa 0,0 l/m 30,8 km/h
SW (5 Bft)
- - 0 min 0 W/m 4,0 C 0,3 C 30,8 km/h
SW (5 Bft)
Durchschnitt _ 4,6 C 81 % 1020,6 hPa #0,0 l/m 21,1 km/h (4 Bft) W-SW - #0 min. 0 W/m 1,6 C -3,9 C 21,1 km/h (4 Bft)
copyright by Holger Just